createdAt,value
2022-09-01T00:01:44.209Z,101581.53
2022-09-01T00:04:15.998Z,101576.72
2022-09-01T00:06:43.721Z,101582.03
2022-09-01T00:09:13.487Z,101576.38
2022-09-01T00:11:42.273Z,101579.16
2022-09-01T00:14:23.761Z,101576.59
2022-09-01T00:16:57.176Z,101578.09
2022-09-01T00:19:24.397Z,101580.63
2022-09-01T00:21:51.046Z,101577.22
2022-09-01T00:24:19.014Z,101590.06
2022-09-01T00:26:46.054Z,101586.81
2022-09-01T00:29:13.550Z,101580.53
2022-09-01T00:31:40.458Z,101584.13
2022-09-01T00:34:07.450Z,101591.28
2022-09-01T00:36:34.208Z,101597.16
2022-09-01T00:39:01.191Z,101587.44
2022-09-01T00:41:31.040Z,101583.31
2022-09-01T00:44:01.773Z,101586.09
2022-09-01T00:46:49.564Z,101581.97
2022-09-01T00:49:20.917Z,101581.66
2022-09-01T00:51:51.036Z,101581.28
2022-09-01T00:54:26.190Z,101582.00
2022-09-01T00:56:57.696Z,101573.81
2022-09-01T00:59:26.743Z,101582.75
2022-09-01T01:01:54.778Z,101580.81
2022-09-01T01:04:21.404Z,101573.53
2022-09-01T01:07:02.152Z,101573.53
2022-09-01T01:09:36.115Z,101573.44
2022-09-01T01:12:05.429Z,101571.13
2022-09-01T01:14:36.834Z,101569.44
2022-09-01T01:17:03.929Z,101574.38
2022-09-01T01:20:08.453Z,101567.84
2022-09-01T01:23:02.233Z,101577.56
2022-09-01T01:25:40.005Z,101569.69
2022-09-01T01:28:14.490Z,101571.84
2022-09-01T01:30:51.039Z,101574.28
2022-09-01T01:33:24.017Z,101576.06
2022-09-01T01:35:52.997Z,101576.94
2022-09-01T01:38:22.616Z,101582.25
2022-09-01T01:40:51.813Z,101581.13
2022-09-01T01:43:23.018Z,101582.97
2022-09-01T01:45:52.950Z,101587.44
2022-09-01T01:48:24.418Z,101592.41
2022-09-01T01:50:53.160Z,101591.94
2022-09-01T01:53:20.953Z,101590.13
2022-09-01T01:55:49.537Z,101588.44
2022-09-01T01:58:19.703Z,101594.59
2022-09-01T02:00:49.069Z,101587.19
2022-09-01T02:03:19.848Z,101587.91
2022-09-01T02:05:49.155Z,101600.47
2022-09-01T02:08:20.840Z,101594.66
2022-09-01T02:10:50.689Z,101584.13
2022-09-01T02:13:19.549Z,101590.16
2022-09-01T02:15:49.515Z,101593.47
2022-09-01T02:18:19.311Z,101590.16
2022-09-01T02:20:51.037Z,101583.31
2022-09-01T02:23:23.388Z,101581.25
2022-09-01T02:28:50.901Z,101593.72
2022-09-01T02:31:22.030Z,101585.00
2022-09-01T02:33:48.801Z,101581.38
2022-09-01T02:36:17.757Z,101586.56
2022-09-01T02:38:46.872Z,101581.72
2022-09-01T02:41:21.722Z,101578.06
2022-09-01T02:43:48.804Z,101579.63
2022-09-01T02:46:15.688Z,101573.66
2022-09-01T02:48:45.996Z,101582.94
2022-09-01T02:51:17.449Z,101574.91
2022-09-01T02:53:48.029Z,101581.56
2022-09-01T02:56:15.403Z,101573.91
2022-09-01T02:58:47.023Z,101575.94
2022-09-01T03:01:21.587Z,101577.53
2022-09-01T03:03:50.991Z,101577.78
2022-09-01T03:06:19.790Z,101577.69
2022-09-01T03:08:48.046Z,101575.88
2022-09-01T03:11:15.030Z,101570.03
2022-09-01T03:13:42.655Z,101577.38
2022-09-01T03:16:10.419Z,101573.75
2022-09-01T03:18:38.407Z,101573.13
2022-09-01T03:21:08.311Z,101576.63
2022-09-01T03:23:35.805Z,101576.03
2022-09-01T03:26:02.863Z,101581.13
2022-09-01T03:28:29.799Z,101583.13
2022-09-01T03:30:58.138Z,101577.16
2022-09-01T03:33:27.737Z,101575.13
2022-09-01T03:35:56.926Z,101583.94
2022-09-01T03:38:24.961Z,101576.06
2022-09-01T03:40:58.987Z,101584.34
2022-09-01T03:43:27.671Z,101582.44
2022-09-01T03:46:02.166Z,101581.09
2022-09-01T03:48:31.629Z,101576.41
2022-09-01T03:51:03.037Z,101576.53
2022-09-01T03:53:34.150Z,101571.22
2022-09-01T03:56:04.077Z,101572.19
2022-09-01T03:58:32.381Z,101567.91
2022-09-01T04:01:02.860Z,101572.06
2022-09-01T04:03:34.081Z,101565.03
2022-09-01T04:06:03.153Z,101565.03
2022-09-01T04:08:33.455Z,101567.59
2022-09-01T04:11:05.035Z,101565.25
2022-09-01T04:13:39.759Z,101564.41
2022-09-01T04:16:30.235Z,101566.34
2022-09-01T04:18:56.944Z,101565.16
2022-09-01T04:21:24.400Z,101570.25
2022-09-01T04:23:51.162Z,101563.75
2022-09-01T04:26:20.377Z,101566.13
2022-09-01T04:28:50.728Z,101568.47
2022-09-01T04:31:20.265Z,101568.91
2022-09-01T04:33:52.792Z,101567.44
2022-09-01T04:36:27.466Z,101561.63
2022-09-01T04:38:58.465Z,101568.97
2022-09-01T04:41:31.983Z,101568.34
2022-09-01T04:44:04.707Z,101571.22
2022-09-01T04:46:38.004Z,101576.09
2022-09-01T04:49:11.990Z,101570.06
2022-09-01T04:51:45.016Z,101561.25
2022-09-01T04:54:14.310Z,101566.31
2022-09-01T04:56:45.162Z,101574.19
2022-09-01T04:59:17.734Z,101574.63
2022-09-01T05:01:50.826Z,101581.34
2022-09-01T05:04:24.426Z,101575.91
2022-09-01T05:07:00.980Z,101578.25
2022-09-01T05:09:37.821Z,101573.00
2022-09-01T05:12:23.811Z,101573.88
2022-09-01T05:14:51.216Z,101580.69
2022-09-01T05:17:18.984Z,101575.31
2022-09-01T05:19:48.531Z,101581.28
2022-09-01T05:22:16.298Z,101576.69
2022-09-01T05:24:51.457Z,101576.97
2022-09-01T05:27:22.794Z,101582.19
2022-09-01T05:29:50.346Z,101583.66
2022-09-01T05:32:17.143Z,101583.31
2022-09-01T05:34:45.179Z,101576.19
2022-09-01T05:37:16.013Z,101583.56
2022-09-01T05:39:42.590Z,101589.06
2022-09-01T05:42:09.762Z,101587.78
2022-09-01T05:44:44.842Z,101587.13
2022-09-01T05:47:21.003Z,101590.34
2022-09-01T05:49:50.163Z,101589.88
2022-09-01T05:52:16.953Z,101588.16
2022-09-01T05:54:47.962Z,101595.31
2022-09-01T05:57:33.726Z,101596.03
2022-09-01T06:00:02.115Z,101596.22
2022-09-01T06:02:29.350Z,101600.91
2022-09-01T06:04:57.655Z,101600.38
2022-09-01T06:07:30.257Z,101599.34
2022-09-01T06:10:00.531Z,101600.81
2022-09-01T06:12:28.933Z,101598.69
2022-09-01T06:14:56.502Z,101601.13
2022-09-01T06:17:26.252Z,101593.56
2022-09-01T06:19:57.466Z,101602.47
2022-09-01T06:22:26.662Z,101598.19
2022-09-01T06:24:56.942Z,101600.84
2022-09-01T06:27:29.976Z,101597.03
2022-09-01T06:29:58.167Z,101593.50
2022-09-01T06:32:26.000Z,101599.47
2022-09-01T06:34:54.591Z,101594.03
2022-09-01T06:37:22.371Z,101603.41
2022-09-01T06:39:51.859Z,101601.38
2022-09-01T06:42:19.895Z,101602.22
2022-09-01T06:44:52.558Z,101598.38
2022-09-01T06:47:19.416Z,101607.81
2022-09-01T06:49:46.017Z,101604.34
2022-09-01T06:52:21.064Z,101604.41
2022-09-01T06:54:48.660Z,101615.06
2022-09-01T07:00:18.840Z,101602.19
2022-09-01T07:02:53.366Z,101603.06
2022-09-01T07:06:02.697Z,101606.13
2022-09-01T07:14:25.635Z,101607.19
2022-09-01T07:19:54.634Z,101613.59
2022-09-01T07:22:39.254Z,101611.63
2022-09-01T07:25:12.959Z,101607.97
2022-09-01T07:27:48.961Z,101613.03
2022-09-01T07:30:24.259Z,101611.91
2022-09-01T07:32:54.088Z,101613.69
2022-09-01T07:35:22.484Z,101605.44
2022-09-01T07:43:44.783Z,101603.84
2022-09-01T07:46:40.112Z,101604.34
2022-09-01T07:51:59.756Z,101598.88
2022-09-01T07:54:27.464Z,101606.31
2022-09-01T07:56:55.454Z,101609.19
2022-09-01T07:59:23.537Z,101611.81
2022-09-01T08:02:01.013Z,101607.53
2022-09-01T08:04:27.584Z,101612.53
2022-09-01T08:06:55.808Z,101612.44
2022-09-01T08:09:37.019Z,101612.44
2022-09-01T08:12:07.412Z,101614.13
2022-09-01T08:14:37.946Z,101608.41
2022-09-01T08:19:54.442Z,101607.75
2022-09-01T08:22:38.702Z,101612.66
2022-09-01T08:25:16.149Z,101607.63
2022-09-01T08:27:43.332Z,101604.44
2022-09-01T08:30:14.769Z,101608.38
2022-09-01T08:32:43.020Z,101600.56
2022-09-01T08:35:11.578Z,101598.63
2022-09-01T08:37:39.376Z,101605.78
2022-09-01T08:40:10.589Z,101603.97
2022-09-01T08:42:49.574Z,101599.44
2022-09-01T08:45:33.199Z,101605.09
2022-09-01T08:49:24.264Z,101607.94
2022-09-01T08:51:40.949Z,101607.63
2022-09-01T08:54:31.847Z,101598.31
2022-09-01T08:57:09.224Z,101601.75
2022-09-01T09:00:12.673Z,101600.34
2022-09-01T09:03:00.807Z,101598.19
2022-09-01T09:05:38.339Z,101596.53
2022-09-01T09:08:33.191Z,101600.53
2022-09-01T09:11:21.662Z,101594.34
2022-09-01T09:14:11.645Z,101590.84
2022-09-01T09:16:53.133Z,101580.53
2022-09-01T09:19:37.876Z,101583.72
2022-09-01T09:22:17.288Z,101587.84
2022-09-01T09:25:04.132Z,101588.38
2022-09-01T09:27:42.471Z,101583.72
2022-09-01T09:30:12.780Z,101561.53
2022-09-01T09:33:11.735Z,101572.41
2022-09-01T09:35:33.329Z,101575.28
2022-09-01T09:38:28.846Z,101574.59
2022-09-01T09:41:20.390Z,101576.00
2022-09-01T09:44:26.906Z,101568.16
2022-09-01T09:46:53.572Z,101564.28
2022-09-01T09:49:36.387Z,101561.81
2022-09-01T09:52:10.049Z,101565.28
2022-09-01T09:54:57.115Z,101558.50
2022-09-01T09:57:24.373Z,101548.94
2022-09-01T10:00:01.077Z,101551.94
2022-09-01T10:02:38.886Z,101539.13
2022-09-01T10:05:34.013Z,101544.50
2022-09-01T10:08:01.242Z,101544.06
2022-09-01T10:10:57.814Z,101538.06
2022-09-01T10:13:32.506Z,101534.09
2022-09-01T10:16:03.816Z,101526.09
2022-09-01T10:18:39.714Z,101530.50
2022-09-01T10:21:16.283Z,101520.34
2022-09-01T10:23:43.275Z,101525.44
2022-09-01T10:26:18.755Z,101528.34
2022-09-01T10:28:57.714Z,101521.16
2022-09-01T10:31:29.406Z,101525.81
2022-09-01T10:34:03.011Z,101531.63
2022-09-01T10:36:34.481Z,101528.50
2022-09-01T10:39:06.269Z,101534.69
2022-09-01T10:41:53.267Z,101534.13
2022-09-01T10:44:31.343Z,101522.44
2022-09-01T10:47:06.449Z,101512.28
2022-09-01T10:49:34.751Z,101514.81
2022-09-01T10:52:05.781Z,101518.75
2022-09-01T10:54:51.347Z,101526.38
2022-09-01T10:57:27.042Z,101513.44
2022-09-01T10:59:57.798Z,101512.75
2022-09-01T11:02:36.919Z,101513.81
2022-09-01T11:05:12.751Z,101512.22
2022-09-01T11:10:35.138Z,101497.06
2022-09-01T11:13:25.003Z,101495.63
2022-09-01T11:15:51.785Z,101505.75
2022-09-01T11:18:30.774Z,101497.69
2022-09-01T11:21:35.888Z,101501.53
2022-09-01T11:24:39.317Z,101489.88
2022-09-01T11:27:09.558Z,101487.88
2022-09-01T11:29:55.707Z,101498.53
2022-09-01T11:32:27.591Z,101499.06
2022-09-01T11:34:55.952Z,101497.47
2022-09-01T11:37:27.566Z,101499.00
2022-09-01T11:40:04.249Z,101495.22
2022-09-01T11:42:39.524Z,101494.53
2022-09-01T11:45:21.585Z,101486.81
2022-09-01T11:47:52.712Z,101489.19
2022-09-01T11:50:26.847Z,101482.22
2022-09-01T11:53:04.791Z,101489.03
2022-09-01T11:55:31.916Z,101482.47
2022-09-01T11:57:59.482Z,101473.19
2022-09-01T12:00:32.380Z,101476.94
2022-09-01T12:03:00.497Z,101477.72
2022-09-01T12:05:41.307Z,101467.66
2022-09-01T12:08:24.034Z,101465.06
2022-09-01T12:10:51.352Z,101466.41
2022-09-01T12:13:23.335Z,101461.78
2022-09-01T12:16:22.229Z,101458.88
2022-09-01T12:18:51.089Z,101448.66
2022-09-01T12:21:26.660Z,101451.94
2022-09-01T12:23:53.708Z,101456.59
2022-09-01T12:26:25.772Z,101459.91
2022-09-01T12:28:53.179Z,101452.19
2022-09-01T12:31:23.709Z,101455.19
2022-09-01T12:33:52.210Z,101447.97
2022-09-01T12:36:27.799Z,101453.22
2022-09-01T12:38:56.116Z,101439.50
2022-09-01T12:41:43.309Z,101438.97
2022-09-01T12:44:37.373Z,101442.00
2022-09-01T12:47:06.847Z,101434.41
2022-09-01T12:49:48.080Z,101431.91
2022-09-01T12:52:20.502Z,101443.66
2022-09-01T12:54:50.129Z,101430.28
2022-09-01T12:57:36.911Z,101428.94
2022-09-01T13:00:19.620Z,101419.56
2022-09-01T13:02:50.691Z,101417.22
2022-09-01T13:05:41.838Z,101428.66
2022-09-01T13:08:10.077Z,101421.59
2022-09-01T13:10:40.045Z,101411.50
2022-09-01T13:13:07.750Z,101410.50
2022-09-01T13:15:36.486Z,101415.38
2022-09-01T13:18:03.374Z,101404.09
2022-09-01T13:20:30.036Z,101414.56
2022-09-01T13:22:57.059Z,101404.78
2022-09-01T13:25:24.117Z,101408.16
2022-09-01T13:27:52.273Z,101400.06
2022-09-01T13:30:28.241Z,101395.03
2022-09-01T13:35:42.687Z,101392.34
2022-09-01T13:38:09.743Z,101394.84
2022-09-01T13:40:36.409Z,101386.94
2022-09-01T13:43:04.674Z,101389.97
2022-09-01T13:45:31.999Z,101380.34
2022-09-01T13:48:16.222Z,101376.47
2022-09-01T13:53:32.489Z,101378.09
2022-09-01T13:55:59.090Z,101379.56
2022-09-01T13:58:25.686Z,101380.19
2022-09-01T14:00:52.684Z,101369.44
2022-09-01T14:03:22.602Z,101377.56
2022-09-01T14:05:49.984Z,101370.44
2022-09-01T14:08:20.844Z,101372.63
2022-09-01T14:10:50.727Z,101368.44
2022-09-01T14:13:19.550Z,101366.72
2022-09-01T14:15:47.084Z,101360.03
2022-09-01T14:18:16.304Z,101362.41
2022-09-01T14:20:46.224Z,101367.00
2022-09-01T14:23:14.547Z,101354.28
2022-09-01T14:25:50.290Z,101361.44
2022-09-01T14:28:20.482Z,101356.88
2022-09-01T14:30:49.331Z,101356.72
2022-09-01T14:33:17.451Z,101352.50
2022-09-01T14:35:47.644Z,101358.19
2022-09-01T14:38:15.212Z,101357.53
2022-09-01T14:40:43.426Z,101352.31
2022-09-01T14:43:14.166Z,101347.44
2022-09-01T14:45:45.808Z,101343.22
2022-09-01T14:48:14.110Z,101347.25
2022-09-01T14:50:43.889Z,101341.25
2022-09-01T14:53:10.773Z,101335.38
2022-09-01T14:55:37.370Z,101336.06
2022-09-01T14:58:04.344Z,101332.03
2022-09-01T15:00:33.402Z,101331.25
2022-09-01T15:03:00.015Z,101326.69
2022-09-01T15:05:26.726Z,101332.75
2022-09-01T15:07:54.013Z,101326.38
2022-09-01T15:10:25.816Z,101327.69
2022-09-01T15:12:54.831Z,101322.81
2022-09-01T15:15:21.641Z,101328.41
2022-09-01T15:17:48.478Z,101331.09
2022-09-01T15:20:33.743Z,101322.50
2022-09-01T15:23:01.404Z,101314.03
2022-09-01T15:25:28.308Z,101317.94
2022-09-01T15:27:55.101Z,101304.97
2022-09-01T15:30:21.825Z,101315.44
2022-09-01T15:32:52.180Z,101316.94
2022-09-01T15:35:19.525Z,101313.41
2022-09-01T15:37:47.677Z,101315.06
2022-09-01T15:40:15.228Z,101311.91
2022-09-01T15:42:42.245Z,101314.25
2022-09-01T15:45:14.869Z,101308.22
2022-09-01T15:47:45.694Z,101307.19
2022-09-01T15:50:21.152Z,101311.22
2022-09-01T15:52:51.460Z,101306.16
2022-09-01T15:55:21.267Z,101316.59
2022-09-01T15:57:48.125Z,101309.22
2022-09-01T16:00:16.127Z,101308.50
2022-09-01T16:02:43.067Z,101307.00
2022-09-01T16:05:10.621Z,101311.19
2022-09-01T16:07:37.225Z,101301.78
2022-09-01T16:10:04.439Z,101306.34
2022-09-01T16:12:31.571Z,101303.47
2022-09-01T16:14:58.181Z,101304.63
2022-09-01T16:17:48.858Z,101299.63
2022-09-01T16:20:37.325Z,101298.25
2022-09-01T16:23:18.803Z,101293.53
2022-09-01T16:25:48.116Z,101301.25
2022-09-01T16:28:22.458Z,101295.72
2022-09-01T16:30:52.451Z,101278.59
2022-09-01T16:33:22.090Z,101286.31
2022-09-01T16:36:15.275Z,101282.78
2022-09-01T16:38:48.675Z,101278.75
2022-09-01T16:41:44.396Z,101281.63
2022-09-01T16:44:41.671Z,101273.41
2022-09-01T16:47:33.379Z,101276.44
2022-09-01T16:50:23.063Z,101270.00
2022-09-01T16:53:11.606Z,101276.38
2022-09-01T16:55:59.229Z,101273.22
2022-09-01T16:58:53.607Z,101268.97
2022-09-01T17:01:45.338Z,101271.34
2022-09-01T17:04:31.925Z,101272.69
2022-09-01T17:07:24.356Z,101268.31
2022-09-01T17:10:16.372Z,101265.09
2022-09-01T17:12:50.468Z,101269.13
2022-09-01T17:15:26.388Z,101269.81
2022-09-01T17:18:08.066Z,101274.50
2022-09-01T17:20:40.039Z,101269.50
2022-09-01T17:23:11.933Z,101267.47
2022-09-01T17:25:58.809Z,101265.25
2022-09-01T17:28:45.082Z,101260.41
2022-09-01T17:31:14.440Z,101265.09
2022-09-01T17:33:49.437Z,101262.75
2022-09-01T17:36:30.885Z,101258.34
2022-09-01T17:39:32.760Z,101260.81
2022-09-01T17:42:11.908Z,101262.69
2022-09-01T17:44:48.040Z,101263.31
2022-09-01T17:47:31.391Z,101264.38
2022-09-01T17:50:00.882Z,101265.97
2022-09-01T17:53:10.410Z,101259.72
2022-09-01T17:56:10.111Z,101264.59
2022-09-01T17:58:55.796Z,101259.81
2022-09-01T18:01:27.962Z,101265.88
2022-09-01T18:04:11.756Z,101260.81
2022-09-01T18:06:55.230Z,101258.97
2022-09-01T18:09:25.425Z,101259.41
2022-09-01T18:11:59.867Z,101259.91
2022-09-01T18:14:49.267Z,101255.47
2022-09-01T18:17:54.533Z,101264.22
2022-09-01T18:20:40.346Z,101267.47
2022-09-01T18:23:10.756Z,101266.88
2022-09-01T18:25:49.391Z,101271.50
2022-09-01T18:28:16.032Z,101274.97
2022-09-01T18:30:53.300Z,101275.31
2022-09-01T18:33:22.692Z,101277.78
2022-09-01T18:36:07.231Z,101282.94
2022-09-01T18:38:43.868Z,101285.25
2022-09-01T18:41:22.431Z,101288.47
2022-09-01T18:43:48.894Z,101289.63
2022-09-01T18:46:46.494Z,101284.72
2022-09-01T18:49:40.029Z,101298.00
2022-09-01T18:52:10.955Z,101295.72
2022-09-01T18:54:37.483Z,101297.78
2022-09-01T18:57:06.921Z,101295.16
2022-09-01T18:59:54.821Z,101294.13
2022-09-01T19:02:33.716Z,101302.50
2022-09-01T19:05:15.741Z,101309.44
2022-09-01T19:08:16.013Z,101302.41
2022-09-01T19:10:51.612Z,101299.16
2022-09-01T19:13:21.099Z,101300.47
2022-09-01T19:15:50.284Z,101302.19
2022-09-01T19:18:42.851Z,101308.13
2022-09-01T19:21:18.268Z,101307.72
2022-09-01T19:23:54.240Z,101306.59
2022-09-01T19:26:25.071Z,101311.25
2022-09-01T19:29:01.042Z,101314.94
2022-09-01T19:31:32.410Z,101313.25
2022-09-01T19:34:13.078Z,101314.09
2022-09-01T19:36:49.555Z,101320.34
2022-09-01T19:39:29.929Z,101318.13
2022-09-01T19:42:18.530Z,101317.13
2022-09-01T19:44:57.305Z,101320.50
2022-09-01T19:47:36.479Z,101318.13
2022-09-01T19:50:24.219Z,101320.25
2022-09-01T19:53:03.141Z,101315.31
2022-09-01T19:55:37.444Z,101309.25
2022-09-01T19:58:16.694Z,101311.81
2022-09-01T20:00:54.320Z,101324.66
2022-09-01T20:03:34.639Z,101322.94
2022-09-01T20:06:04.200Z,101316.47
2022-09-01T20:08:43.063Z,101319.84
2022-09-01T20:11:35.113Z,101315.75
2022-09-01T20:14:32.904Z,101324.34
2022-09-01T20:17:05.885Z,101324.19
2022-09-01T20:19:41.474Z,101318.13
2022-09-01T20:22:46.286Z,101325.31
2022-09-01T20:25:17.820Z,101325.19
2022-09-01T20:28:05.324Z,101326.44
2022-09-01T20:30:41.361Z,101326.31
2022-09-01T20:33:16.793Z,101319.25
2022-09-01T20:36:16.015Z,101326.88
2022-09-01T20:39:04.327Z,101329.50
2022-09-01T20:41:42.801Z,101325.69
2022-09-01T20:44:23.257Z,101323.69
2022-09-01T20:46:52.508Z,101329.56
2022-09-01T20:49:19.176Z,101320.81
2022-09-01T20:52:02.574Z,101332.91
2022-09-01T20:55:01.726Z,101327.16
2022-09-01T20:57:47.029Z,101330.66
2022-09-01T21:00:21.654Z,101323.88
2022-09-01T21:03:34.083Z,101332.31
2022-09-01T21:06:13.484Z,101324.56
2022-09-01T21:08:53.132Z,101328.91
2022-09-01T21:11:22.368Z,101324.56
2022-09-01T21:14:03.667Z,101328.06
2022-09-01T21:16:48.290Z,101326.09
2022-09-01T21:19:17.993Z,101326.81
2022-09-01T21:22:07.560Z,101326.09
2022-09-01T21:24:35.314Z,101326.41
2022-09-01T21:27:07.211Z,101330.88
2022-09-01T21:29:46.870Z,101323.28
2022-09-01T21:32:15.906Z,101323.28
2022-09-01T21:34:44.305Z,101320.72
2022-09-01T21:37:11.504Z,101314.56
2022-09-01T21:39:38.273Z,101318.47
2022-09-01T21:42:07.205Z,101320.44
2022-09-01T21:44:34.309Z,101319.59
2022-09-01T21:47:02.850Z,101316.91
2022-09-01T21:49:29.476Z,101320.56
2022-09-01T21:51:59.780Z,101318.16
2022-09-01T21:54:26.432Z,101320.50
2022-09-01T21:56:53.375Z,101316.47
2022-09-01T21:59:20.716Z,101316.22
2022-09-01T22:01:47.789Z,101312.69
2022-09-01T22:04:17.227Z,101317.03
2022-09-01T22:06:45.647Z,101319.00
2022-09-01T22:09:21.360Z,101318.41
2022-09-01T22:11:50.548Z,101317.00
2022-09-01T22:14:18.937Z,101313.16
2022-09-01T22:16:46.097Z,101318.97
2022-09-01T22:19:12.988Z,101310.25
2022-09-01T22:21:40.075Z,101312.06
2022-09-01T22:24:07.566Z,101304.97
2022-09-01T22:26:35.064Z,101305.69
2022-09-01T22:29:04.385Z,101309.88
2022-09-01T22:31:32.461Z,101306.69
2022-09-01T22:34:00.286Z,101311.84
2022-09-01T22:36:33.450Z,101304.41
2022-09-01T22:39:00.866Z,101310.84
2022-09-01T22:41:29.889Z,101304.78
2022-09-01T22:43:59.320Z,101308.19
2022-09-01T22:46:28.390Z,101303.66
2022-09-01T22:48:56.551Z,101307.38
2022-09-01T22:51:23.097Z,101297.81
2022-09-01T22:53:50.093Z,101300.97
2022-09-01T22:56:21.828Z,101296.84
2022-09-01T22:58:49.977Z,101300.25
2022-09-01T23:01:20.825Z,101306.06
2022-09-01T23:03:47.552Z,101298.03
2022-09-01T23:06:27.377Z,101294.03
2022-09-01T23:08:56.861Z,101293.25
2022-09-01T23:11:23.896Z,101293.25
2022-09-01T23:13:50.756Z,101290.41
2022-09-01T23:16:20.534Z,101289.22
2022-09-01T23:18:48.624Z,101294.13
2022-09-01T23:21:18.270Z,101286.25
2022-09-01T23:23:45.272Z,101287.94
2022-09-01T23:26:13.876Z,101293.78
2022-09-01T23:28:42.536Z,101286.59
2022-09-01T23:31:11.820Z,101297.09
2022-09-01T23:33:38.363Z,101293.75
2022-09-01T23:36:11.274Z,101287.19
2022-09-01T23:38:38.279Z,101291.38
2022-09-01T23:41:08.335Z,101287.94
2022-09-01T23:43:35.135Z,101285.16
2022-09-01T23:46:01.967Z,101289.63
2022-09-01T23:48:29.189Z,101285.47
2022-09-01T23:51:05.972Z,101284.94
2022-09-01T23:53:34.969Z,101279.47
2022-09-01T23:56:03.865Z,101270.00
2022-09-01T23:58:31.912Z,101268.38
